This is the latest recevied weather packets stored in our database for station/object EA1IXY-2. If no packets are shown the sender has not sent any weather packets the latest 10 day(s).
| Time | Temp. | Humidity | Pressure | Rain* | Wind** | Luminosity | Snow |
|---|---|---|---|---|---|---|---|
| 1778041944 | 36.67° C | 18% | 926.9 hPa | - | - | - | - |
| 1778041032 | 37.78° C | 18% | 928.2 hPa | - | - | - | - |
| 1778040132 | 37.78° C | 18% | 928.3 hPa | - | - | - | - |
| 1778039232 | 37.78° C | 17% | 928.4 hPa | - | - | - | - |
| 1778038332 | 37.78° C | 18% | 928.6 hPa | - | - | - | - |
| 1778037432 | 38.33° C | 18% | 928.7 hPa | - | - | - | - |
| 1778036532 | 37.78° C | 18% | 928.6 hPa | - | - | - | - |
| 1778035632 | 37.22° C | 18% | 928.6 hPa | - | - | - | - |
| 1778034732 | 37.78° C | 18% | 928.5 hPa | - | - | - | - |
| 1778033832 | 37.78° C | 18% | 928.8 hPa | - | - | - | - |
| 1778032932 | 37.78° C | 18% | 928.7 hPa | - | - | - | - |
| 1778032032 | 37.78° C | 18% | 928.9 hPa | - | - | - | - |
| 1778031131 | 36.67° C | 19% | 927.7 hPa | - | - | - | - |
| 1778030220 | 37.78° C | 18% | 929 hPa | - | - | - | - |
| 1778029319 | 37.78° C | 18% | 929 hPa | - | - | - | - |
| 1778028419 | 37.78° C | 17% | 929.1 hPa | - | - | - | - |
| 1778027519 | 37.78° C | 18% | 929.2 hPa | - | - | - | - |
| 1778026619 | 37.78° C | 17% | 929.3 hPa | - | - | - | - |
| 1778025719 | 37.78° C | 17% | 929.3 hPa | - | - | - | - |
| 1778024819 | 37.22° C | 18% | 929.4 hPa | - | - | - | - |
| 1778023919 | 37.22° C | 18% | 929.4 hPa | - | - | - | - |
| 1778023019 | 37.22° C | 18% | 929.6 hPa | - | - | - | - |
| 1778022119 | 37.78° C | 17% | 929.6 hPa | - | - | - | - |
| 1778021219 | 37.22° C | 18% | 929.8 hPa | - | - | - | - |
| 1778020318 | 36.67° C | 17% | 928.4 hPa | - | - | - | - |
* Rain since midnight (hover to see other rain measurements)
** Current wind speed in m/s (hover to see current wind gust speed)